Terminal Aerodrome Forecast
Issued by NWS

Home | Current Version | Previous Version | Text Only | Print | Product List | Glossary On
Versions: 1 2 3 4 5 6 7 8 9 10 11 12 13 14 15 16 17
000
FTUS42 KKEY 302320
TAFMTH
TAF
KMTH 302320Z 0100/0124 VRB04KT P6SM VCSH SCT025 SCT050 BKN250
     FM010600 06005KT P6SM FEW025 BKN250
     FM011900 06006KT P6SM VCSH SCT025=

USA.gov is the U.S. government's official web portal to all federal, state and local government web resources and services.